Skip to main content

Chamusca / Chouto

ID 1210735 · 39.2700, -8.3508 map

Latest reading · 2026-05-09 19:00 (Europe/Lisbon)

Temperature
14.3 °C
Humidity
86 %
Pressure
1,007.9 hPa
Precipitation
0.0 mm
Radiation
Wind speed
11.2 km/h
Wind direction
S · South

24-hour history

Time (Europe/Lisbon) Temp Humidity Pressure Rain Wind Dir
2026-05-09 19:00 14.3 °C 86 % 1,007.9 0.0 mm 11.2 km/h S
2026-05-09 18:00 13.7 °C 84 % 1,007.5 1.3 mm 7.9 km/h SW
2026-05-09 17:00 16.4 °C 70 % 1,006.2 0.0 mm 18.4 km/h S
2026-05-09 16:00 17.9 °C 63 % 1,005.7 0.0 mm 26.6 km/h S
2026-05-09 15:00 18.3 °C 61 % 1,005.3 0.0 mm 26.6 km/h S
2026-05-09 14:00 17.2 °C 74 % 1,005.1 0.5 mm 24.8 km/h S
2026-05-09 13:00 17.2 °C 70 % 1,004.9 0.0 mm 27.7 km/h S
2026-05-09 12:00 17.1 °C 75 % 1,004.2 0.0 mm 17.6 km/h S
2026-05-09 11:00 16.2 °C 81 % 1,004.1 0.0 mm 13.0 km/h SE
2026-05-09 10:00 14.4 °C 93 % 1,004.3 0.0 mm 11.9 km/h SE
2026-05-09 09:00 13.0 °C 100 % 1,004.5 0.7 mm 7.2 km/h E
2026-05-09 08:00 12.8 °C 99 % 1,004.6 5.7 mm 7.2 km/h SE
2026-05-09 07:00 13.0 °C 96 % 1,004.2 0.6 mm 9.4 km/h SE
2026-05-09 06:00 12.9 °C 97 % 1,004.4 0.1 mm 7.2 km/h E
2026-05-09 05:00 12.8 °C 94 % 1,005.1 0.9 mm 5.0 km/h E
2026-05-09 04:00 12.3 °C 92 % 1,005.8 0.0 mm 5.8 km/h SE
2026-05-09 03:00 11.7 °C 92 % 1,006.5 0.0 mm 6.1 km/h SE
2026-05-09 02:00 12.6 °C 88 % 1,007.0 0.0 mm 6.5 km/h SE
2026-05-09 01:00 13.1 °C 90 % 1,007.1 0.0 mm 9.0 km/h SE
2026-05-09 00:00 13.3 °C 91 % 1,006.7 0.2 mm 15.1 km/h SE
2026-05-08 23:00 13.2 °C 94 % 1,007.9 1.1 mm 8.6 km/h E
2026-05-08 22:00 13.6 °C 96 % 1,007.7 0.1 mm 15.5 km/h SE
2026-05-08 21:00 13.9 °C 91 % 1,007.4 1.3 mm 6.5 km/h SE
2026-05-08 20:00 17.0 °C 65 % 1,006.7 0.3 mm 11.9 km/h S